sensor_id;sensor_type;location;lat;lon;timestamp;pressure;altitude;pressure_sealevel;temperature;humidity
63652;BME280;49801;37.536;-122.304;2022-12-26T00:00:09;102125.59;;;15.45;64.17
63652;BME280;49801;37.536;-122.304;2022-12-26T00:00:36;102123.91;;;15.44;63.82
63652;BME280;49801;37.536;-122.304;2022-12-26T00:01:06;102123.25;;;15.42;63.67
63652;BME280;49801;37.536;-122.304;2022-12-26T00:01:33;102123.25;;;15.42;63.94
63652;BME280;49801;37.536;-122.304;2022-12-26T00:01:59;102119.47;;;15.43;64.28
63652;BME280;49801;37.536;-122.304;2022-12-26T00:02:25;102122.38;;;15.42;64.13
63652;BME280;49801;37.536;-122.304;2022-12-26T00:02:51;102124.09;;;15.43;64.22
63652;BME280;49801;37.536;-122.304;2022-12-26T00:03:17;102120.31;;;15.44;64.22
63652;BME280;49801;37.536;-122.304;2022-12-26T00:03:43;102116.56;;;15.45;64.38
63652;BME280;49801;37.536;-122.304;2022-12-26T00:04:09;102120.69;;;15.41;64.81
63652;BME280;49801;37.536;-122.304;2022-12-26T00:04:35;102121.53;;;15.41;64.74
63652;BME280;49801;37.536;-122.304;2022-12-26T00:05:00;102124.94;;;15.43;64.68
63652;BME280;49801;37.536;-122.304;2022-12-26T00:05:26;102124.94;;;15.43;64.84
63652;BME280;49801;37.536;-122.304;2022-12-26T00:05:52;102127.66;;;15.43;64.87
63652;BME280;49801;37.536;-122.304;2022-12-26T00:06:19;102123.25;;;15.42;64.91
63652;BME280;49801;37.536;-122.304;2022-12-26T00:06:45;102130.38;;;15.43;65.01
63652;BME280;49801;37.536;-122.304;2022-12-26T00:07:11;102124.09;;;15.43;65.13
63652;BME280;49801;37.536;-122.304;2022-12-26T00:07:36;102116.56;;;15.45;65.49
63652;BME280;49801;37.536;-122.304;2022-12-26T00:08:02;102127.50;;;15.45;65.43
63652;BME280;49801;37.536;-122.304;2022-12-26T00:08:29;102115.72;;;15.44;65.76
63652;BME280;49801;37.536;-122.304;2022-12-26T00:08:55;102124.09;;;15.43;65.87
63652;BME280;49801;37.536;-122.304;2022-12-26T00:09:21;102124.94;;;15.43;66.10
63652;BME280;49801;37.536;-122.304;2022-12-26T00:09:47;102132.09;;;15.44;66.38
63652;BME280;49801;37.536;-122.304;2022-12-26T00:10:12;102128.69;;;15.42;66.67
63652;BME280;49801;37.536;-122.304;2022-12-26T00:10:38;102126.97;;;15.41;66.99
63652;BME280;49801;37.536;-122.304;2022-12-26T00:11:04;102130.72;;;15.40;67.00
63652;BME280;49801;37.536;-122.304;2022-12-26T00:11:30;102131.75;;;15.39;66.88
63652;BME280;49801;37.536;-122.304;2022-12-26T00:11:56;102128.38;;;15.37;67.24
63652;BME280;49801;37.536;-122.304;2022-12-26T00:12:22;102123.41;;;15.32;67.40
63652;BME280;49801;37.536;-122.304;2022-12-26T00:12:47;102124.59;;;15.30;67.38
63652;BME280;49801;37.536;-122.304;2022-12-26T00:13:13;102127.31;;;15.30;67.36
63652;BME280;49801;37.536;-122.304;2022-12-26T00:13:39;102123.91;;;15.28;67.01
63652;BME280;49801;37.536;-122.304;2022-12-26T00:14:09;102121.88;;;15.22;66.86
63652;BME280;49801;37.536;-122.304;2022-12-26T00:14:35;102126.47;;;15.21;66.52
63652;BME280;49801;37.536;-122.304;2022-12-26T00:15:01;102121.88;;;15.22;66.66
63652;BME280;49801;37.536;-122.304;2022-12-26T00:15:27;102122.88;;;15.21;66.82
63652;BME280;49801;37.536;-122.304;2022-12-26T00:15:53;102118.44;;;15.19;66.46
63652;BME280;49801;37.536;-122.304;2022-12-26T00:16:19;102118.44;;;15.19;67.26
63652;BME280;49801;37.536;-122.304;2022-12-26T00:16:45;102122.22;;;15.18;67.37
63652;BME280;49801;37.536;-122.304;2022-12-26T00:17:11;102118.81;;;15.16;66.73
63652;BME280;49801;37.536;-122.304;2022-12-26T00:17:36;102114.53;;;15.14;66.14
63652;BME280;49801;37.536;-122.304;2022-12-26T00:18:02;102113.69;;;15.13;66.39
63652;BME280;49801;37.536;-122.304;2022-12-26T00:18:28;102119.13;;;15.13;66.19
63652;BME280;49801;37.536;-122.304;2022-12-26T00:18:54;102114.00;;;15.10;65.95
63652;BME280;49801;37.536;-122.304;2022-12-26T00:19:20;102114.34;;;15.07;66.69
63652;BME280;49801;37.536;-122.304;2022-12-26T00:19:45;102111.63;;;15.07;66.79
63652;BME280;49801;37.536;-122.304;2022-12-26T00:20:11;102112.66;;;15.06;66.67
63652;BME280;49801;37.536;-122.304;2022-12-26T00:20:37;102109.22;;;15.04;66.54
63652;BME280;49801;37.536;-122.304;2022-12-26T00:21:03;102104.81;;;15.03;66.67
63652;BME280;49801;37.536;-122.304;2022-12-26T00:21:29;102111.28;;;15.02;66.80
63652;BME280;49801;37.536;-122.304;2022-12-26T00:21:55;102107.88;;;15.00;66.79
63652;BME280;49801;37.536;-122.304;2022-12-26T00:22:21;102106.16;;;14.99;66.76
63652;BME280;49801;37.536;-122.304;2022-12-26T00:22:47;102110.25;;;14.95;66.76
63652;BME280;49801;37.536;-122.304;2022-12-26T00:23:13;102111.97;;;14.96;67.05
63652;BME280;49801;37.536;-122.304;2022-12-26T00:23:39;102117.75;;;14.93;67.08
63652;BME280;49801;37.536;-122.304;2022-12-26T00:24:05;102109.56;;;14.93;67.25
63652;BME280;49801;37.536;-122.304;2022-12-26T00:24:31;102106.00;;;14.92;67.13
63652;BME280;49801;37.536;-122.304;2022-12-26T00:24:56;102111.63;;;14.91;66.89
63652;BME280;49801;37.536;-122.304;2022-12-26T00:25:22;102115.50;;;14.88;67.18
63652;BME280;49801;37.536;-122.304;2022-12-26T00:25:48;102110.94;;;14.89;67.30
63652;BME280;49801;37.536;-122.304;2022-12-26T00:26:15;102110.94;;;14.89;67.18
63652;BME280;49801;37.536;-122.304;2022-12-26T00:26:41;102114.66;;;14.88;67.31
63652;BME280;49801;37.536;-122.304;2022-12-26T00:27:07;102107.50;;;14.87;67.29
63652;BME280;49801;37.536;-122.304;2022-12-26T00:27:33;102114.16;;;14.84;67.29
63652;BME280;49801;37.536;-122.304;2022-12-26T00:27:58;102107.84;;;14.84;67.40
63652;BME280;49801;37.536;-122.304;2022-12-26T00:28:24;102115.31;;;14.81;67.25
63652;BME280;49801;37.536;-122.304;2022-12-26T00:28:51;102109.88;;;14.81;67.16
63652;BME280;49801;37.536;-122.304;2022-12-26T00:29:17;102117.38;;;14.79;67.25
63652;BME280;49801;37.536;-122.304;2022-12-26T00:29:43;102113.63;;;14.80;67.64
63652;BME280;49801;37.536;-122.304;2022-12-26T00:30:09;102113.63;;;14.80;67.78
63652;BME280;49801;37.536;-122.304;2022-12-26T00:30:36;102110.22;;;14.78;67.73
63652;BME280;49801;37.536;-122.304;2022-12-26T00:31:03;102120.25;;;14.78;67.62
63652;BME280;49801;37.536;-122.304;2022-12-26T00:31:29;102115.84;;;14.77;67.67
63652;BME280;49801;37.536;-122.304;2022-12-26T00:31:56;102110.56;;;14.75;67.92
63652;BME280;49801;37.536;-122.304;2022-12-26T00:32:22;102115.13;;;14.75;67.73
63652;BME280;49801;37.536;-122.304;2022-12-26T00:32:48;102120.78;;;14.73;67.61
63652;BME280;49801;37.536;-122.304;2022-12-26T00:33:14;102113.78;;;14.71;67.52
63652;BME280;49801;37.536;-122.304;2022-12-26T00:33:39;102113.94;;;14.69;67.49
63652;BME280;49801;37.536;-122.304;2022-12-26T00:34:05;102117.69;;;14.68;67.94
63652;BME280;49801;37.536;-122.304;2022-12-26T00:34:31;102119.56;;;14.68;68.18
63652;BME280;49801;37.536;-122.304;2022-12-26T00:34:57;102115.13;;;14.67;68.08
63652;BME280;49801;37.536;-122.304;2022-12-26T00:35:22;102111.53;;;14.66;68.06
63652;BME280;49801;37.536;-122.304;2022-12-26T00:35:48;102110.69;;;14.66;68.10
63652;BME280;49801;37.536;-122.304;2022-12-26T00:36:16;102115.31;;;14.65;68.23
63652;BME280;49801;37.536;-122.304;2022-12-26T00:36:42;102110.19;;;14.62;68.26
63652;BME280;49801;37.536;-122.304;2022-12-26T00:37:08;102112.22;;;14.60;68.13
63652;BME280;49801;37.536;-122.304;2022-12-26T00:37:33;102112.22;;;14.60;68.33
63652;BME280;49801;37.536;-122.304;2022-12-26T00:37:59;102113.22;;;14.59;68.57
63652;BME280;49801;37.536;-122.304;2022-12-26T00:38:25;102115.94;;;14.59;68.54
63652;BME280;49801;37.536;-122.304;2022-12-26T00:38:51;102119.84;;;14.56;68.71
63652;BME280;49801;37.536;-122.304;2022-12-26T00:39:16;102112.69;;;14.55;69.13
63652;BME280;49801;37.536;-122.304;2022-12-26T00:39:42;102116.59;;;14.53;68.90
63652;BME280;49801;37.536;-122.304;2022-12-26T00:40:08;102113.88;;;14.53;69.01
63652;BME280;49801;37.536;-122.304;2022-12-26T00:40:34;102122.22;;;14.51;69.03
63652;BME280;49801;37.536;-122.304;2022-12-26T00:41:00;102126.09;;;14.49;69.22
63652;BME280;49801;37.536;-122.304;2022-12-26T00:41:26;102123.53;;;14.47;69.38
63652;BME280;49801;37.536;-122.304;2022-12-26T00:41:52;102120.97;;;14.45;69.50
63652;BME280;49801;37.536;-122.304;2022-12-26T00:42:18;102123.03;;;14.43;69.68
63652;BME280;49801;37.536;-122.304;2022-12-26T00:42:43;102126.78;;;14.42;69.59
63652;BME280;49801;37.536;-122.304;2022-12-26T00:43:09;102123.34;;;14.40;69.27
63652;BME280;49801;37.536;-122.304;2022-12-26T00:43:35;102125.38;;;14.38;68.91
63652;BME280;49801;37.536;-122.304;2022-12-26T00:44:01;102124.03;;;14.34;69.08
63652;BME280;49801;37.536;-122.304;2022-12-26T00:44:27;102126.06;;;14.32;69.52
63652;BME280;49801;37.536;-122.304;2022-12-26T00:44:53;102128.78;;;14.32;69.59
63652;BME280;49801;37.536;-122.304;2022-12-26T00:45:19;102128.06;;;14.30;69.58
63652;BME280;49801;37.536;-122.304;2022-12-26T00:45:46;102124.13;;;14.24;69.47
63652;BME280;49801;37.536;-122.304;2022-12-26T00:46:13;102118.16;;;14.21;69.60
63652;BME280;49801;37.536;-122.304;2022-12-26T00:46:38;102121.91;;;14.20;69.61
63652;BME280;49801;37.536;-122.304;2022-12-26T00:47:04;102123.94;;;14.18;69.63
63652;BME280;49801;37.536;-122.304;2022-12-26T00:47:30;102122.94;;;14.19;69.71
63652;BME280;49801;37.536;-122.304;2022-12-26T00:47:56;102120.22;;;14.19;69.90
63652;BME280;49801;37.536;-122.304;2022-12-26T00:48:21;102123.94;;;14.18;69.97
63652;BME280;49801;37.536;-122.304;2022-12-26T00:48:47;102112.19;;;14.17;70.06
63652;BME280;49801;37.536;-122.304;2022-12-26T00:49:13;102121.38;;;14.16;70.04
63652;BME280;49801;37.536;-122.304;2022-12-26T00:49:39;102117.81;;;14.16;69.89
63652;BME280;49801;37.536;-122.304;2022-12-26T00:50:05;102114.22;;;14.15;69.97
63652;BME280;49801;37.536;-122.304;2022-12-26T00:50:31;102116.06;;;14.15;69.96
63652;BME280;49801;37.536;-122.304;2022-12-26T00:50:57;102119.00;;;14.13;69.84
63652;BME280;49801;37.536;-122.304;2022-12-26T00:51:23;102120.00;;;14.12;70.18
63652;BME280;49801;37.536;-122.304;2022-12-26T00:51:49;102120.16;;;14.11;70.59
63652;BME280;49801;37.536;-122.304;2022-12-26T00:52:14;102112.16;;;14.09;70.76
63652;BME280;49801;37.536;-122.304;2022-12-26T00:52:40;102110.63;;;14.06;70.88
63652;BME280;49801;37.536;-122.304;2022-12-26T00:53:06;102112.63;;;14.04;71.16
63652;BME280;49801;37.536;-122.304;2022-12-26T00:53:32;102116.38;;;14.03;71.40
63652;BME280;49801;37.536;-122.304;2022-12-26T00:53:58;102123.88;;;14.01;71.44
63652;BME280;49801;37.536;-122.304;2022-12-26T00:54:24;102118.41;;;14.01;71.29
63652;BME280;49801;37.536;-122.304;2022-12-26T00:54:50;102117.72;;;13.99;71.35
63652;BME280;49801;37.536;-122.304;2022-12-26T00:55:15;102117.00;;;13.97;71.26
63652;BME280;49801;37.536;-122.304;2022-12-26T00:55:41;102118.06;;;13.96;71.22
63652;BME280;49801;37.536;-122.304;2022-12-26T00:56:08;102127.91;;;13.97;71.32
63652;BME280;49801;37.536;-122.304;2022-12-26T00:56:34;102125.34;;;13.96;71.38
63652;BME280;49801;37.536;-122.304;2022-12-26T00:56:59;102128.25;;;13.94;71.41
63652;BME280;49801;37.536;-122.304;2022-12-26T00:57:25;102130.25;;;13.92;71.60
63652;BME280;49801;37.536;-122.304;2022-12-26T00:57:51;102123.13;;;13.91;71.77
63652;BME280;49801;37.536;-122.304;2022-12-26T00:58:17;102121.41;;;13.90;71.76
63652;BME280;49801;37.536;-122.304;2022-12-26T00:58:43;102136.06;;;13.89;71.93
63652;BME280;49801;37.536;-122.304;2022-12-26T00:59:09;102134.34;;;13.88;71.94
63652;BME280;49801;37.536;-122.304;2022-12-26T00:59:34;102132.63;;;13.87;72.25
63652;BME280;49801;37.536;-122.304;2022-12-26T01:00:00;102131.91;;;13.85;72.25
63652;BME280;49801;37.536;-122.304;2022-12-26T01:00:26;102137.53;;;13.83;72.26
63652;BME280;49801;37.536;-122.304;2022-12-26T01:00:52;102135.84;;;13.82;72.31
63652;BME280;49801;37.536;-122.304;2022-12-26T01:01:19;102133.28;;;13.81;72.26
63652;BME280;49801;37.536;-122.304;2022-12-26T01:01:45;102137.00;;;13.80;72.16
63652;BME280;49801;37.536;-122.304;2022-12-26T01:02:11;102135.31;;;13.79;72.53
63652;BME280;49801;37.536;-122.304;2022-12-26T01:02:55;102138.34;;;13.76;72.34
63652;BME280;49801;37.536;-122.304;2022-12-26T01:03:21;102137.66;;;13.74;72.67
63652;BME280;49801;37.536;-122.304;2022-12-26T01:03:47;102145.97;;;13.72;72.62
63652;BME280;49801;37.536;-122.304;2022-12-26T01:04:13;102144.25;;;13.71;72.65
63652;BME280;49801;37.536;-122.304;2022-12-26T01:04:39;102138.97;;;13.69;72.49
63652;BME280;49801;37.536;-122.304;2022-12-26T01:05:08;102139.13;;;13.68;72.58
63652;BME280;49801;37.536;-122.304;2022-12-26T01:05:35;102142.00;;;13.66;72.79
63652;BME280;49801;37.536;-122.304;2022-12-26T01:06:04;102135.72;;;13.66;72.67
63652;BME280;49801;37.536;-122.304;2022-12-26T01:06:30;102141.47;;;13.63;72.75
63652;BME280;49801;37.536;-122.304;2022-12-26T01:06:56;102133.47;;;13.61;72.85
63652;BME280;49801;37.536;-122.304;2022-12-26T01:07:21;102137.22;;;13.60;73.08
63652;BME280;49801;37.536;-122.304;2022-12-26T01:07:47;102133.81;;;13.58;73.08
63652;BME280;49801;37.536;-122.304;2022-12-26T01:08:13;102134.94;;;13.56;73.32
63652;BME280;49801;37.536;-122.304;2022-12-26T01:08:39;102139.84;;;13.52;73.49
63652;BME280;49801;37.536;-122.304;2022-12-26T01:09:05;102141.91;;;13.50;73.54
63652;BME280;49801;37.536;-122.304;2022-12-26T01:09:30;102138.47;;;13.48;73.62
63652;BME280;49801;37.536;-122.304;2022-12-26T01:09:56;102140.47;;;13.46;73.74
63652;BME280;49801;37.536;-122.304;2022-12-26T01:10:22;102142.50;;;13.44;74.04
63652;BME280;49801;37.536;-122.304;2022-12-26T01:10:48;102144.53;;;13.42;74.10
63652;BME280;49801;37.536;-122.304;2022-12-26T01:11:14;102152.00;;;13.40;74.21
63652;BME280;49801;37.536;-122.304;2022-12-26T01:12:00;102152.31;;;13.37;74.37
63652;BME280;49801;37.536;-122.304;2022-12-26T01:12:26;102156.03;;;13.36;74.46
63652;BME280;49801;37.536;-122.304;2022-12-26T01:12:52;102152.63;;;13.34;74.55
63652;BME280;49801;37.536;-122.304;2022-12-26T01:13:18;102149.22;;;13.31;74.49
63652;BME280;49801;37.536;-122.304;2022-12-26T01:13:43;102110.81;;;12.99;74.60
63652;BME280;49801;37.536;-122.304;2022-12-26T01:14:13;102158.69;;;13.27;74.70
63652;BME280;49801;37.536;-122.304;2022-12-26T01:14:39;102157.94;;;13.25;74.61
63652;BME280;49801;37.536;-122.304;2022-12-26T01:15:05;102156.25;;;13.24;74.81
63652;BME280;49801;37.536;-122.304;2022-12-26T01:15:31;102159.28;;;13.21;74.88
63652;BME280;49801;37.536;-122.304;2022-12-26T01:15:57;102163.00;;;13.20;74.84
63652;BME280;49801;37.536;-122.304;2022-12-26T01:16:23;102156.88;;;13.18;74.91
63652;BME280;49801;37.536;-122.304;2022-12-26T01:16:49;102159.75;;;13.17;74.88
63652;BME280;49801;37.536;-122.304;2022-12-26T01:17:14;102160.94;;;13.14;75.05
63652;BME280;49801;37.536;-122.304;2022-12-26T01:17:40;102164.63;;;13.13;75.06
63652;BME280;49801;37.536;-122.304;2022-12-26T01:18:06;102157.50;;;13.12;75.41
63652;BME280;49801;37.536;-122.304;2022-12-26T01:18:32;102157.66;;;13.10;75.45
63652;BME280;49801;37.536;-122.304;2022-12-26T01:18:58;102165.97;;;13.09;75.65
63652;BME280;49801;37.536;-122.304;2022-12-26T01:19:24;102162.56;;;13.07;75.57
63652;BME280;49801;37.536;-122.304;2022-12-26T01:19:50;102169.00;;;13.06;75.82
63652;BME280;49801;37.536;-122.304;2022-12-26T01:20:15;102160.97;;;13.04;76.05
63652;BME280;49801;37.536;-122.304;2022-12-26T01:20:41;102163.84;;;13.03;76.08
63652;BME280;49801;37.536;-122.304;2022-12-26T01:21:07;102170.31;;;13.02;76.03
63652;BME280;49801;37.536;-122.304;2022-12-26T01:21:34;102169.78;;;12.98;75.82
63652;BME280;49801;37.536;-122.304;2022-12-26T01:22:00;102168.91;;;12.98;76.08
63652;BME280;49801;37.536;-122.304;2022-12-26T01:22:26;102170.91;;;12.95;75.98
63652;BME280;49801;37.536;-122.304;2022-12-26T01:22:52;102170.09;;;12.95;76.17
63652;BME280;49801;37.536;-122.304;2022-12-26T01:23:18;102173.94;;;12.92;76.09
63652;BME280;49801;37.536;-122.304;2022-12-26T01:23:44;102166.13;;;12.89;76.08
63652;BME280;49801;37.536;-122.304;2022-12-26T01:24:09;102166.13;;;12.89;76.28
63652;BME280;49801;37.536;-122.304;2022-12-26T01:24:35;102169.13;;;12.86;76.44
63652;BME280;49801;37.536;-122.304;2022-12-26T01:25:01;102164.69;;;12.85;76.54
63652;BME280;49801;37.536;-122.304;2022-12-26T01:25:27;102166.72;;;12.83;76.68
63652;BME280;49801;37.536;-122.304;2022-12-26T01:25:53;102167.72;;;12.82;76.71
63652;BME280;49801;37.536;-122.304;2022-12-26T01:26:18;102162.59;;;12.79;76.83
63652;BME280;49801;37.536;-122.304;2022-12-26T01:26:44;102165.47;;;12.78;76.65
63652;BME280;49801;37.536;-122.304;2022-12-26T01:27:10;102156.78;;;12.74;77.11
63652;BME280;49801;37.536;-122.304;2022-12-26T01:27:36;102162.22;;;12.74;77.21
63652;BME280;49801;37.536;-122.304;2022-12-26T01:28:02;102158.75;;;12.72;77.51
63652;BME280;49801;37.536;-122.304;2022-12-26T01:28:27;102154.34;;;12.71;77.53
63652;BME280;49801;37.536;-122.304;2022-12-26T01:28:53;102150.94;;;12.69;77.82
63652;BME280;49801;37.536;-122.304;2022-12-26T01:29:19;102146.50;;;12.68;77.80
63652;BME280;49801;37.536;-122.304;2022-12-26T01:29:45;102144.78;;;12.67;77.77
63652;BME280;49801;37.536;-122.304;2022-12-26T01:30:11;102150.38;;;12.65;78.15
63652;BME280;49801;37.536;-122.304;2022-12-26T01:30:36;102145.09;;;12.64;77.94
63652;BME280;49801;37.536;-122.304;2022-12-26T01:31:03;102147.09;;;12.62;77.98
63652;BME280;49801;37.536;-122.304;2022-12-26T01:31:29;102150.13;;;12.59;77.97
63652;BME280;49801;37.536;-122.304;2022-12-26T01:31:54;102147.72;;;12.55;78.33
63652;BME280;49801;37.536;-122.304;2022-12-26T01:32:20;102158.75;;;12.54;78.58
63652;BME280;49801;37.536;-122.304;2022-12-26T01:32:46;102155.16;;;12.53;78.53
63652;BME280;49801;37.536;-122.304;2022-12-26T01:33:12;102150.72;;;12.52;78.40
63652;BME280;49801;37.536;-122.304;2022-12-26T01:33:38;102155.47;;;12.50;78.56
63652;BME280;49801;37.536;-122.304;2022-12-26T01:34:04;102157.50;;;12.48;78.36
63652;BME280;49801;37.536;-122.304;2022-12-26T01:34:29;102161.19;;;12.47;78.48
63652;BME280;49801;37.536;-122.304;2022-12-26T01:34:55;102157.78;;;12.45;78.69
63652;BME280;49801;37.536;-122.304;2022-12-26T01:35:21;102161.34;;;12.46;78.45
63652;BME280;49801;37.536;-122.304;2022-12-26T01:35:50;102163.38;;;12.44;78.61
63652;BME280;49801;37.536;-122.304;2022-12-26T01:36:16;102159.94;;;12.42;78.67
63652;BME280;49801;37.536;-122.304;2022-12-26T01:36:42;102159.25;;;12.40;78.98
63652;BME280;49801;37.536;-122.304;2022-12-26T01:37:09;102157.53;;;12.38;79.06
63652;BME280;49801;37.536;-122.304;2022-12-26T01:37:36;102161.22;;;12.37;78.85
63652;BME280;49801;37.536;-122.304;2022-12-26T01:38:02;102162.25;;;12.36;78.78
63652;BME280;49801;37.536;-122.304;2022-12-26T01:38:28;102162.41;;;12.35;78.88
63652;BME280;49801;37.536;-122.304;2022-12-26T01:38:53;102155.25;;;12.34;79.03
63652;BME280;49801;37.536;-122.304;2022-12-26T01:39:19;102160.81;;;12.32;79.18
63652;BME280;49801;37.536;-122.304;2022-12-26T01:39:45;102164.72;;;12.30;79.03
63652;BME280;49801;37.536;-122.304;2022-12-26T01:40:11;102165.69;;;12.29;79.08
63652;BME280;49801;37.536;-122.304;2022-12-26T01:40:41;102168.75;;;12.26;79.29
63652;BME280;49801;37.536;-122.304;2022-12-26T01:41:06;102161.59;;;12.25;79.45
63652;BME280;49801;37.536;-122.304;2022-12-26T01:41:41;102165.44;;;12.22;79.39
63652;BME280;49801;37.536;-122.304;2022-12-26T01:42:13;102165.63;;;12.21;79.38
63652;BME280;49801;37.536;-122.304;2022-12-26T01:42:40;102160.34;;;12.19;79.54
63652;BME280;49801;37.536;-122.304;2022-12-26T01:43:08;102155.03;;;12.17;79.41
63652;BME280;49801;37.536;-122.304;2022-12-26T01:43:49;102164.19;;;12.16;79.65
63652;BME280;49801;37.536;-122.304;2022-12-26T01:45:44;102156.66;;;12.10;80.05
63652;BME280;49801;37.536;-122.304;2022-12-26T01:46:15;102150.50;;;12.08;80.27
63652;BME280;49801;37.536;-122.304;2022-12-26T01:46:44;102153.34;;;12.07;80.27
63652;BME280;49801;37.536;-122.304;2022-12-26T01:47:11;102152.66;;;12.05;80.25
63652;BME280;49801;37.536;-122.304;2022-12-26T01:47:47;102159.94;;;12.04;80.42
63652;BME280;49801;37.536;-122.304;2022-12-26T01:48:21;102151.09;;;12.02;80.65
63652;BME280;49801;37.536;-122.304;2022-12-26T01:48:50;102151.38;;;11.99;80.71
63652;BME280;49801;37.536;-122.304;2022-12-26T01:49:30;102155.09;;;11.98;80.47
63652;BME280;49801;37.536;-122.304;2022-12-26T01:49:59;102153.97;;;11.91;80.38
63652;BME280;49801;37.536;-122.304;2022-12-26T01:50:30;102155.69;;;11.92;80.65
63652;BME280;49801;37.536;-122.304;2022-12-26T01:51:00;102161.38;;;11.89;80.72
63652;BME280;49801;37.536;-122.304;2022-12-26T01:51:27;102160.69;;;11.87;80.80
63652;BME280;49801;37.536;-122.304;2022-12-26T01:51:56;102157.97;;;11.87;80.70
63652;BME280;49801;37.536;-122.304;2022-12-26T01:52:26;102155.53;;;11.83;80.88
63652;BME280;49801;37.536;-122.304;2022-12-26T01:52:54;102159.09;;;11.84;81.26
63652;BME280;49801;37.536;-122.304;2022-12-26T01:53:26;102154.84;;;11.81;81.13
63652;BME280;49801;37.536;-122.304;2022-12-26T01:53:55;102151.41;;;11.79;81.38
63652;BME280;49801;37.536;-122.304;2022-12-26T01:54:22;102152.41;;;11.78;81.26
63652;BME280;49801;37.536;-122.304;2022-12-26T01:54:49;102151.72;;;11.76;81.19
63652;BME280;49801;37.536;-122.304;2022-12-26T01:55:16;102148.28;;;11.74;81.25
63652;BME280;49801;37.536;-122.304;2022-12-26T01:55:45;102141.13;;;11.73;81.46
63652;BME280;49801;37.536;-122.304;2022-12-26T01:56:13;102138.56;;;11.72;81.56
63652;BME280;49801;37.536;-122.304;2022-12-26T01:56:41;102146.00;;;11.70;81.69
63652;BME280;49801;37.536;-122.304;2022-12-26T01:57:09;102150.59;;;11.69;81.85
63652;BME280;49801;37.536;-122.304;2022-12-26T01:57:41;102140.00;;;11.66;81.76
63652;BME280;49801;37.536;-122.304;2022-12-26T01:58:09;102143.72;;;11.65;81.99
63652;BME280;49801;37.536;-122.304;2022-12-26T01:58:38;102143.00;;;11.63;82.03
63652;BME280;49801;37.536;-122.304;2022-12-26T01:59:08;102144.00;;;11.62;81.96
63652;BME280;49801;37.536;-122.304;2022-12-26T01:59:36;102146.72;;;11.62;82.22
63652;BME280;49801;37.536;-122.304;2022-12-26T02:00:03;102138.00;;;11.58;82.20
63652;BME280;49801;37.536;-122.304;2022-12-26T02:00:29;102137.44;;;11.55;82.23
63652;BME280;49801;37.536;-122.304;2022-12-26T02:00:55;102142.03;;;11.54;82.23
63652;BME280;49801;37.536;-122.304;2022-12-26T02:01:23;102142.16;;;11.53;82.34
63652;BME280;49801;37.536;-122.304;2022-12-26T02:01:50;102137.72;;;11.52;82.31
63652;BME280;49801;37.536;-122.304;2022-12-26T02:02:18;102146.88;;;11.51;82.58
63652;BME280;49801;37.536;-122.304;2022-12-26T02:02:45;102141.47;;;11.51;82.83
63652;BME280;49801;37.536;-122.304;2022-12-26T02:03:29;102146.03;;;11.50;82.75
63652;BME280;49801;37.536;-122.304;2022-12-26T02:04:14;102141.75;;;11.48;82.61
63652;BME280;49801;37.536;-122.304;2022-12-26T02:04:59;102146.19;;;11.49;83.03
63652;BME280;49801;37.536;-122.304;2022-12-26T02:05:43;102139.03;;;11.48;83.03
63652;BME280;49801;37.536;-122.304;2022-12-26T02:06:10;102141.03;;;11.45;82.79
63652;BME280;49801;37.536;-122.304;2022-12-26T02:06:37;102134.91;;;11.43;82.86
63652;BME280;49801;37.536;-122.304;2022-12-26T02:07:05;102138.75;;;11.41;82.75
63652;BME280;49801;37.536;-122.304;2022-12-26T02:07:32;102140.63;;;11.40;82.79
63652;BME280;49801;37.536;-122.304;2022-12-26T02:07:58;102138.91;;;11.39;82.84
63652;BME280;49801;37.536;-122.304;2022-12-26T02:08:28;102145.19;;;11.40;83.01
63652;BME280;49801;37.536;-122.304;2022-12-26T02:08:55;102138.03;;;11.39;83.28
63652;BME280;49801;37.536;-122.304;2022-12-26T02:09:21;102136.31;;;11.38;83.30
63652;BME280;49801;37.536;-122.304;2022-12-26T02:09:47;102142.75;;;11.37;82.88
63652;BME280;49801;37.536;-122.304;2022-12-26T02:10:14;102132.06;;;11.35;83.02
63652;BME280;49801;37.536;-122.304;2022-12-26T02:10:43;102126.63;;;11.35;83.17
63652;BME280;49801;37.536;-122.304;2022-12-26T02:11:12;102133.03;;;11.34;83.03
63652;BME280;49801;37.536;-122.304;2022-12-26T02:11:44;102132.34;;;11.32;83.03
63652;BME280;49801;37.536;-122.304;2022-12-26T02:12:19;102134.34;;;11.30;83.15
63652;BME280;49801;37.536;-122.304;2022-12-26T02:12:46;102120.06;;;11.28;83.01
63652;BME280;49801;37.536;-122.304;2022-12-26T02:13:12;102129.19;;;11.27;83.02
63652;BME280;49801;37.536;-122.304;2022-12-26T02:13:39;102127.50;;;11.26;83.30
63652;BME280;49801;37.536;-122.304;2022-12-26T02:14:05;102126.50;;;11.27;83.25
63652;BME280;49801;37.536;-122.304;2022-12-26T02:14:32;102117.66;;;11.25;83.38
63652;BME280;49801;37.536;-122.304;2022-12-26T02:14:57;102120.50;;;11.23;83.47
63652;BME280;49801;37.536;-122.304;2022-12-26T02:15:24;102120.63;;;11.22;83.45
63652;BME280;49801;37.536;-122.304;2022-12-26T02:15:50;102118.94;;;11.21;83.41
63652;BME280;49801;37.536;-122.304;2022-12-26T02:16:17;102113.53;;;11.21;83.67
63652;BME280;49801;37.536;-122.304;2022-12-26T02:16:43;102116.38;;;11.19;83.64
63652;BME280;49801;37.536;-122.304;2022-12-26T02:17:11;102111.94;;;11.18;83.69